Charlestown, Maryland
Current Conditions -  °F | °C
As of 6:51 AM on Tuesday 21 Oct 2014 (Local Time) from KILG Reporting Station
Broken Clouds Broken Clouds  
Wind Chill: 51°   Ceiling: 11000
Heat Index: 51°   Visibility: 10mi
Dew Point: 49°   Wind: 0mph
Humidity: 92%   Direction: NA
Pressure: 29.87"   Gusts: NA
Location:  39.57°N, 75.97°W
Report Text: KILG 211051Z 00000KT 10SM BKN110 11/09 A2987 RMK AO2 RAE0958 SLP115 P0000 T01060094
Loading
Personal Weather Stations






























Interactive Weather Map
Tropical Storm Tracking
New forecast layout! Learn more

10-Day Weather Forecast

Advertisements
Track Severe Weather on mobile